createdAt,value
2022-12-23T00:00:34.764Z,1004
2022-12-23T00:02:18.352Z,998.6
2022-12-23T00:04:02.090Z,990.8
2022-12-23T00:05:45.785Z,985.5
2022-12-23T00:07:29.458Z,980.5
2022-12-23T00:09:13.282Z,976.1
2022-12-23T00:10:56.884Z,973.5
2022-12-23T00:12:40.563Z,974
2022-12-23T00:14:24.268Z,974
2022-12-23T00:16:07.968Z,968
2022-12-23T00:17:51.667Z,964.2
2022-12-23T00:19:35.385Z,961
2022-12-23T00:21:19.088Z,956.2
2022-12-23T00:23:02.813Z,954.7
2022-12-23T00:24:46.474Z,953.5
2022-12-23T00:26:30.199Z,952.5
2022-12-23T00:28:13.905Z,951.9
2022-12-23T00:29:57.607Z,945.7
2022-12-23T00:31:41.299Z,941
2022-12-23T00:33:25.004Z,937.3
2022-12-23T00:35:08.707Z,933.2
2022-12-23T00:36:52.441Z,931.6
2022-12-23T00:38:36.112Z,928.1
2022-12-23T00:40:19.820Z,922.5
2022-12-23T00:42:03.595Z,918.1
2022-12-23T00:43:47.208Z,911.4
2022-12-23T00:45:30.927Z,907.2
2022-12-23T00:47:14.648Z,908.8
2022-12-23T00:48:58.335Z,906.8
2022-12-23T00:50:42.048Z,905
2022-12-23T00:52:25.718Z,902
2022-12-23T00:54:09.426Z,899
2022-12-23T00:55:53.128Z,892.5
2022-12-23T00:57:36.821Z,888.5
2022-12-23T00:59:20.541Z,885.6
2022-12-23T01:01:04.247Z,886.6
2022-12-23T01:02:47.942Z,886.7
2022-12-23T01:04:31.625Z,883.8
2022-12-23T01:06:15.377Z,881.2
2022-12-23T01:07:59.090Z,876.4
2022-12-23T01:09:42.734Z,871.7
2022-12-23T01:11:26.434Z,868.9
2022-12-23T01:13:10.135Z,866.3
2022-12-23T01:14:53.856Z,863.8
2022-12-23T01:16:37.521Z,859.5
2022-12-23T01:18:21.226Z,853.7
2022-12-23T01:20:04.935Z,853.1
2022-12-23T01:21:48.649Z,850.3
2022-12-23T01:23:32.333Z,849.7
2022-12-23T01:25:16.033Z,846.1
2022-12-23T01:26:59.753Z,843.8
2022-12-23T01:28:43.446Z,839.8
2022-12-23T01:30:27.155Z,838.7
2022-12-23T01:32:10.854Z,836.1
2022-12-23T01:33:54.643Z,831.3
2022-12-23T01:35:38.314Z,830.1
2022-12-23T01:37:21.951Z,832.1
2022-12-23T01:39:05.671Z,829.4
2022-12-23T01:40:49.373Z,825.4
2022-12-23T01:42:33.059Z,823.3
2022-12-23T01:44:16.763Z,820
2022-12-23T01:46:00.475Z,815.2
2022-12-23T01:47:44.181Z,808.7
2022-12-23T01:49:27.876Z,808
2022-12-23T01:51:11.583Z,807
2022-12-23T01:52:55.268Z,805.4
2022-12-23T01:54:38.975Z,803.7
2022-12-23T01:56:22.685Z,802
2022-12-23T01:58:06.392Z,800.2
2022-12-23T01:59:50.087Z,799.8
2022-12-23T02:01:33.781Z,799.2
2022-12-23T02:03:17.494Z,795.2
2022-12-23T02:05:01.182Z,791.7
2022-12-23T02:06:44.895Z,791.1
2022-12-23T02:08:28.595Z,792.3
2022-12-23T02:10:12.311Z,792.7
2022-12-23T02:11:56.070Z,792.1
2022-12-23T02:13:39.711Z,791.3
2022-12-23T02:17:07.118Z,785.5
2022-12-23T02:18:50.827Z,785.6
2022-12-23T02:20:34.527Z,786.9
2022-12-23T02:22:18.232Z,786
2022-12-23T02:24:01.920Z,786.6
2022-12-23T02:25:45.619Z,787.8
2022-12-23T02:27:29.339Z,785.7
2022-12-23T02:29:13.020Z,784.1
2022-12-23T02:30:56.763Z,783.1
2022-12-23T02:32:40.446Z,780.4
2022-12-23T02:34:24.133Z,776.1
2022-12-23T02:36:07.855Z,770.8
2022-12-23T02:37:51.548Z,768.7
2022-12-23T02:39:35.242Z,768.4
2022-12-23T02:41:18.940Z,765
2022-12-23T02:43:02.675Z,761.2
2022-12-23T02:44:46.342Z,762
2022-12-23T02:46:30.069Z,759.2
2022-12-23T02:48:13.772Z,757
2022-12-23T02:49:57.484Z,753.1
2022-12-23T02:51:41.161Z,750.3
2022-12-23T02:53:24.870Z,750.8
2022-12-23T02:55:08.548Z,748.4
2022-12-23T02:56:52.262Z,748.3
2022-12-23T02:58:35.944Z,748.4
2022-12-23T03:00:19.659Z,748.6
2022-12-23T03:02:03.367Z,747.3
2022-12-23T03:03:47.085Z,743.9
2022-12-23T03:05:30.862Z,742.6
2022-12-23T03:07:14.462Z,740.8
2022-12-23T03:08:58.173Z,740.2
2022-12-23T03:10:41.872Z,740.6
2022-12-23T03:12:25.576Z,741.5
2022-12-23T03:14:09.392Z,741
2022-12-23T03:15:53.000Z,741.7
2022-12-23T03:17:36.698Z,741.4
2022-12-23T03:19:20.395Z,740.9
2022-12-23T03:21:04.092Z,740.8
2022-12-23T03:22:47.818Z,739.4
2022-12-23T03:24:31.507Z,737
2022-12-23T03:26:15.216Z,736.3
2022-12-23T03:27:58.904Z,734.2
2022-12-23T03:29:42.684Z,731.8
2022-12-23T03:31:26.286Z,733.4
2022-12-23T03:33:09.999Z,731.1
2022-12-23T03:34:53.729Z,726.8
2022-12-23T03:36:37.426Z,729.2
2022-12-23T03:38:21.109Z,731.6
2022-12-23T03:40:04.811Z,727.1
2022-12-23T03:41:48.553Z,723.4
2022-12-23T03:43:32.206Z,720.8
2022-12-23T03:45:15.923Z,718.5
2022-12-23T03:46:59.613Z,714
2022-12-23T03:48:43.333Z,708.2
2022-12-23T03:50:27.080Z,708.7
2022-12-23T03:52:10.729Z,705.5
2022-12-23T03:53:54.440Z,706.1
2022-12-23T03:55:38.153Z,703
2022-12-23T03:57:21.883Z,702.1
2022-12-23T03:59:05.547Z,703.7
2022-12-23T04:00:49.494Z,705.5
2022-12-23T04:02:32.949Z,707.3
2022-12-23T04:04:16.637Z,708.2
2022-12-23T10:21:05.089Z,720.2
2022-12-23T10:22:48.775Z,720.4
2022-12-23T10:38:22.106Z,709.9
2022-12-23T10:43:33.204Z,716.5
2022-12-23T10:45:15.599Z,718.7
2022-12-23T10:46:59.319Z,718.9
2022-12-23T10:48:43.003Z,724.4
2022-12-23T10:50:26.728Z,727.8
2022-12-23T10:52:10.411Z,735.6
2022-12-23T10:53:54.145Z,739.4
2022-12-23T10:55:37.833Z,740.8
2022-12-23T10:57:21.556Z,739.6
2022-12-23T10:59:05.287Z,740.5
2022-12-23T11:00:48.942Z,749.2
2022-12-23T11:02:32.607Z,761.2
2022-12-23T11:04:16.359Z,767.1
2022-12-23T11:06:00.057Z,773.8
2022-12-23T11:07:43.776Z,776.4
2022-12-23T11:09:27.447Z,776.4
2022-12-23T11:11:11.213Z,786.6
2022-12-23T11:12:54.667Z,791.3
2022-12-23T11:14:38.563Z,797
2022-12-23T11:16:22.292Z,803.1
2022-12-23T11:18:05.992Z,804.7
2022-12-23T11:19:49.653Z,804.7
2022-12-23T11:23:16.949Z,821.2
2022-12-23T11:25:00.768Z,850.5
2022-12-23T11:26:44.296Z,849
2022-12-23T11:28:28.199Z,844.5
2022-12-23T11:30:11.669Z,845.6
2022-12-23T11:31:55.536Z,849.3
2022-12-23T11:33:39.258Z,849.8
2022-12-23T11:35:22.972Z,850.3
2022-12-23T11:37:06.657Z,846.5
2022-12-23T11:38:50.306Z,846.6
2022-12-23T11:40:33.894Z,847.9
2022-12-23T11:42:17.829Z,846.9
2022-12-23T11:44:01.469Z,846.5
2022-12-23T11:45:45.182Z,847.3
2022-12-23T11:47:28.689Z,851.5
2022-12-23T11:49:12.390Z,851.7
2022-12-23T11:50:56.287Z,846.2
2022-12-23T11:52:39.960Z,842.4
2022-12-23T11:54:23.614Z,841.8
2022-12-23T11:56:07.400Z,843.4
2022-12-23T11:57:51.114Z,841.5
2022-12-23T11:59:34.896Z,843.9
2022-12-23T12:01:18.324Z,856.1
2022-12-23T12:03:02.272Z,864.3
2022-12-23T12:04:45.904Z,872.5
2022-12-23T12:06:29.622Z,878.2
2022-12-23T12:08:13.111Z,881
2022-12-23T12:09:56.960Z,884.4
2022-12-23T12:11:40.527Z,890.8
2022-12-23T12:13:24.348Z,893
2022-12-23T12:15:08.195Z,893.6
2022-12-23T12:16:51.777Z,890.9
2022-12-23T12:18:35.537Z,888
2022-12-23T12:20:19.264Z,890.8
2022-12-23T12:22:02.799Z,895.5
2022-12-23T12:23:46.587Z,910.1
2022-12-23T12:25:30.307Z,928.4
2022-12-23T12:27:14.015Z,927.2
2022-12-23T12:28:57.702Z,929.8
2022-12-23T12:30:41.407Z,924.7
2022-12-23T12:32:24.930Z,925.1
2022-12-23T12:34:08.849Z,929.3
2022-12-23T12:35:52.348Z,930.2
2022-12-23T12:37:36.174Z,930.8
2022-12-23T12:39:19.914Z,930.3
2022-12-23T12:41:03.612Z,927.6
2022-12-23T12:42:47.286Z,936.2
2022-12-23T12:44:31.067Z,945.1
2022-12-23T12:46:14.718Z,942
2022-12-23T12:47:58.396Z,944.5
2022-12-23T12:49:42.140Z,947.1
2022-12-23T12:51:25.878Z,956.5
2022-12-23T12:53:09.546Z,963.6
2022-12-23T12:54:53.253Z,968.4
2022-12-23T12:56:36.926Z,970.8
2022-12-23T12:58:20.641Z,975.6
2022-12-23T13:00:04.306Z,979.4
2022-12-23T13:01:48.027Z,984.7
2022-12-23T13:03:31.724Z,990.5
2022-12-23T13:05:15.430Z,996.2
2022-12-23T13:07:22.186Z,1001.5
2022-12-23T13:08:42.823Z,1003.9
2022-12-23T13:10:26.429Z,1004.8
2022-12-23T13:12:10.208Z,1002.9
2022-12-23T13:13:53.823Z,1003.3
2022-12-23T13:15:37.643Z,982.9
2022-12-23T13:17:21.336Z,929.3
2022-12-23T13:19:05.091Z,893.1
2022-12-23T13:20:48.762Z,898
2022-12-23T13:22:32.432Z,897.6
2022-12-23T13:24:16.203Z,899
2022-12-23T13:25:59.857Z,900.2
2022-12-23T13:27:43.549Z,899.9
2022-12-23T13:29:27.221Z,900.2
2022-12-23T13:31:10.942Z,897.1
2022-12-23T13:32:54.712Z,897.7
2022-12-23T13:34:38.363Z,900.2
2022-12-23T13:36:22.065Z,895.9
2022-12-23T13:38:05.817Z,893.1
2022-12-23T13:39:49.469Z,880.3
2022-12-23T13:42:00.363Z,843.2
2022-12-23T13:43:16.849Z,821.2
2022-12-23T13:45:00.647Z,811.6
2022-12-23T13:46:44.218Z,802.4
2022-12-23T13:48:27.985Z,796
2022-12-23T13:50:11.651Z,791
2022-12-23T13:51:55.395Z,795.9
2022-12-23T13:53:39.069Z,805.8
2022-12-23T13:55:22.823Z,807.3
2022-12-23T13:57:06.477Z,807.8
2022-12-23T13:58:50.252Z,806.2
2022-12-23T14:00:33.903Z,804.5
2022-12-23T14:02:17.485Z,807.7
2022-12-23T14:04:01.191Z,803.5
2022-12-23T14:05:44.966Z,798.9
2022-12-23T14:07:28.679Z,799
2022-12-23T14:09:12.371Z,801.9
2022-12-23T14:10:55.956Z,785.1
2022-12-23T14:12:39.847Z,772
2022-12-23T14:14:23.504Z,782.3
2022-12-23T14:16:07.221Z,793.3
2022-12-23T14:17:50.799Z,805.4
2022-12-23T14:19:34.637Z,712.2
2022-12-23T14:21:18.120Z,675.2
2022-12-23T14:23:02.030Z,751.7
2022-12-23T14:24:45.401Z,763.9
2022-12-23T14:26:29.082Z,777.9
2022-12-23T14:28:12.807Z,783.1
2022-12-23T14:29:56.489Z,815.6
2022-12-23T14:31:40.036Z,828.4
2022-12-23T14:33:23.742Z,835.7
2022-12-23T14:35:07.605Z,842.7
2022-12-23T14:36:51.332Z,848.8
2022-12-23T14:38:35.349Z,853.3
2022-12-23T14:40:18.707Z,856.7
2022-12-23T14:42:02.396Z,859.1
2022-12-23T14:43:46.139Z,868.4
2022-12-23T14:45:29.725Z,876.7
2022-12-23T14:47:13.396Z,885.2
2022-12-23T14:48:57.215Z,894.4
2022-12-23T14:50:40.754Z,906
2022-12-23T14:52:24.668Z,916.2
2022-12-23T14:54:08.631Z,923.4
2022-12-23T14:55:52.002Z,936.8
2022-12-23T14:57:35.725Z,964.3
2022-12-23T14:59:19.393Z,1005.6
2022-12-23T15:01:03.193Z,1033.3
2022-12-23T15:02:46.811Z,1044.1
2022-12-23T15:04:31.159Z,1053.9
2022-12-23T15:06:14.776Z,1069.2
2022-12-23T15:07:57.927Z,1073.7
2022-12-23T15:09:41.621Z,1076.7
2022-12-23T15:11:25.381Z,1090.7
2022-12-23T15:13:09.375Z,1101.6
2022-12-23T15:14:52.774Z,1108.7
2022-12-23T15:16:36.440Z,1124.2
2022-12-23T15:18:20.186Z,1133.1
2022-12-23T15:20:03.809Z,1135.9
2022-12-23T15:21:47.846Z,1141.3
2022-12-23T15:23:31.447Z,1147.5
2022-12-23T15:25:14.957Z,1157.2
2022-12-23T15:26:58.564Z,1166.3
2022-12-23T15:28:42.495Z,1176.1
2022-12-23T15:30:26.046Z,1192.9
2022-12-23T15:32:11.186Z,1203.9
2022-12-23T15:33:53.293Z,1222.3
2022-12-23T15:35:39.915Z,1236.7
2022-12-23T15:37:20.830Z,1250.9
2022-12-23T15:39:04.592Z,1251.9
2022-12-23T15:41:03.361Z,1251.2
2022-12-23T15:42:37.601Z,1249.1
2022-12-23T15:44:15.520Z,1248.9
2022-12-23T15:45:59.791Z,1247.5
2022-12-23T15:47:42.920Z,1248.4
2022-12-23T15:49:26.782Z,1243.9
2022-12-23T15:51:10.318Z,1236.7
2022-12-23T15:52:58.123Z,1234
2022-12-23T15:54:38.194Z,1236.6
2022-12-23T15:56:41.310Z,1235.6
2022-12-23T15:58:05.614Z,1238.4
2022-12-23T15:59:49.103Z,1235.3
2022-12-23T16:01:32.557Z,1230.5
2022-12-23T16:03:16.389Z,1228
2022-12-23T16:05:00.138Z,1229.6
2022-12-23T16:06:43.766Z,1207.3
2022-12-23T16:08:28.300Z,1133.7
2022-12-23T16:20:33.451Z,1159.5
2022-12-23T16:22:35.584Z,1166.5
2022-12-23T16:24:20.355Z,1165.5
2022-12-23T16:41:17.745Z,1129.8
2022-12-23T16:43:01.443Z,1128.2
2022-12-23T16:44:45.261Z,1126.5
2022-12-23T16:46:28.834Z,1125.6
2022-12-23T16:48:12.545Z,1126
2022-12-23T16:49:56.204Z,1131.8
2022-12-23T16:51:40.104Z,1133.5
2022-12-23T16:53:23.866Z,1135.2
2022-12-23T16:55:07.497Z,1136.9
2022-12-23T16:56:51.241Z,1137.5
2022-12-23T16:58:34.923Z,1143.8
2022-12-23T17:00:18.608Z,1148.6
2022-12-23T17:02:02.252Z,1144.5
2022-12-23T17:03:46.007Z,1145.9
2022-12-23T17:05:29.689Z,1144.8
2022-12-23T17:07:13.229Z,1144.8
2022-12-23T17:08:57.206Z,1144.6
2022-12-23T17:10:40.830Z,1145.7
2022-12-23T17:12:24.511Z,1147.6
2022-12-23T17:14:08.181Z,1148.2
2022-12-23T17:15:51.916Z,1149.9
2022-12-23T17:17:35.619Z,1151.8
2022-12-23T17:19:19.515Z,1151.6
2022-12-23T17:21:02.956Z,1145.8
2022-12-23T17:22:46.711Z,1138.2
2022-12-23T17:24:30.464Z,1133.1
2022-12-23T17:26:14.117Z,1132.6
2022-12-23T17:27:57.772Z,1130.1
2022-12-23T17:29:41.508Z,1125.6
2022-12-23T17:31:25.052Z,1122.7
2022-12-23T17:33:08.892Z,1121.1
2022-12-23T17:34:52.622Z,1123.4
2022-12-23T17:36:36.353Z,1127.7
2022-12-23T17:38:20.076Z,1127.4
2022-12-23T17:40:03.607Z,1130.9
2022-12-23T17:41:47.435Z,1138.5
2022-12-23T17:43:31.157Z,1147.6
2022-12-23T17:45:14.826Z,1149.4
2022-12-23T17:46:58.587Z,1149.9
2022-12-23T17:48:42.067Z,1151.5
2022-12-23T17:50:25.910Z,1146.2
2022-12-23T17:52:09.476Z,1142.6
2022-12-23T17:53:53.414Z,1140.9
2022-12-23T17:55:37.076Z,1138.1
2022-12-23T17:57:20.720Z,1137.2
2022-12-23T17:59:04.522Z,1135
2022-12-23T18:00:48.132Z,1132.8
2022-12-23T18:02:31.803Z,1132.5
2022-12-23T18:04:15.543Z,1137.3
2022-12-23T18:05:59.129Z,1139.2
2022-12-23T18:07:42.880Z,1138.9
2022-12-23T18:09:26.584Z,1137.5
2022-12-23T18:11:10.259Z,1137.8
2022-12-23T18:12:53.894Z,1138.4
2022-12-23T18:14:37.684Z,1140.5
2022-12-23T18:16:21.354Z,1140.5
2022-12-23T18:18:05.010Z,1137.3
2022-12-23T18:19:48.893Z,1136.3
2022-12-23T18:21:32.437Z,1132.7
2022-12-23T18:23:16.131Z,1130.5
2022-12-23T18:24:59.880Z,1131.1
2022-12-23T18:26:43.586Z,1130.8
2022-12-23T18:28:27.240Z,1132.7
2022-12-23T18:30:10.958Z,1133.4
2022-12-23T18:31:54.743Z,1133.8
2022-12-23T18:33:38.331Z,1137.6
2022-12-23T18:35:22.186Z,1140.3
2022-12-23T18:37:05.889Z,1140.6
2022-12-23T18:38:49.438Z,1149.9
2022-12-23T18:40:33.136Z,1144.5
2022-12-23T18:42:16.865Z,1140.3
2022-12-23T18:44:00.583Z,1140.8
2022-12-23T18:45:44.311Z,1143.2
2022-12-23T18:47:28.000Z,1151.2
2022-12-23T18:49:11.690Z,1160.1
2022-12-23T18:50:55.486Z,1174.2
2022-12-23T18:52:39.054Z,1190.7
2022-12-23T18:54:22.907Z,1197.7
2022-12-23T18:56:06.510Z,1202.1
2022-12-23T18:57:50.194Z,1201.2
2022-12-23T18:59:33.887Z,1201.1
2022-12-23T19:01:17.588Z,1198.3
2022-12-23T19:03:01.307Z,1201
2022-12-23T19:04:45.033Z,1202.6
2022-12-23T19:06:28.757Z,1212.1
2022-12-23T19:08:12.412Z,1217
2022-12-23T19:09:56.176Z,1223.3
2022-12-23T19:11:39.792Z,1233.9
2022-12-23T19:13:23.518Z,1245.7
2022-12-23T19:15:07.290Z,1259.6
2022-12-23T19:16:50.899Z,1273.7
2022-12-23T19:18:34.602Z,1283.2
2022-12-23T19:20:18.319Z,1294.5
2022-12-23T19:22:02.006Z,1312.3
2022-12-23T19:23:45.729Z,1327.9
2022-12-23T19:25:29.425Z,1348.7
2022-12-23T19:27:13.164Z,1372
2022-12-23T19:28:56.867Z,1391.6
2022-12-23T19:30:40.532Z,1409.9
2022-12-23T19:32:24.226Z,1421.4
2022-12-23T19:34:08.029Z,1423.3
2022-12-23T19:35:51.752Z,1425
2022-12-23T19:37:35.503Z,1429
2022-12-23T19:39:19.221Z,1434.5
2022-12-23T19:41:02.896Z,1441.7
2022-12-23T19:42:46.572Z,1446
2022-12-23T19:44:30.328Z,1450.7
2022-12-23T19:46:14.020Z,1458
2022-12-23T19:47:57.746Z,1459.8
2022-12-23T19:49:41.290Z,1462.7
2022-12-23T19:51:25.095Z,1474.4
2022-12-23T19:53:08.828Z,1481.1
2022-12-23T19:54:52.488Z,1487.6
2022-12-23T19:56:36.246Z,1490.9
2022-12-23T19:58:19.791Z,1493.6
2022-12-23T20:00:03.584Z,1495.1
2022-12-23T20:01:47.322Z,1499
2022-12-23T20:03:31.051Z,1503.3
2022-12-23T20:05:14.706Z,1507.5
2022-12-23T20:06:58.520Z,1513.5
2022-12-23T20:08:42.057Z,1522.2
2022-12-23T20:10:25.772Z,1527
2022-12-23T20:12:09.414Z,1527.3
2022-12-23T20:13:53.196Z,1493.5
2022-12-23T20:15:36.937Z,1488.6
2022-12-23T20:17:20.519Z,1494.1
2022-12-23T20:19:04.325Z,1503.2
2022-12-23T20:20:47.950Z,1495.4
2022-12-23T20:22:31.607Z,1450.6
2022-12-23T20:24:15.323Z,1457.9
2022-12-23T20:25:59.021Z,1468.2
2022-12-23T20:27:42.781Z,1476
2022-12-23T20:29:26.494Z,1481.5
2022-12-23T20:31:10.135Z,1476.6
2022-12-23T20:32:53.842Z,1473.4
2022-12-23T20:34:37.621Z,1474.9
2022-12-23T20:36:21.252Z,1479.6
2022-12-23T20:38:04.946Z,1480.8
2022-12-23T20:39:48.673Z,1485.7
2022-12-23T20:41:32.350Z,1491.1
2022-12-23T20:43:16.064Z,1498.2
2022-12-23T20:44:59.800Z,1506.3
2022-12-23T20:46:43.447Z,1515.5
2022-12-23T20:48:27.154Z,1525.8
2022-12-23T20:50:10.932Z,1536
2022-12-23T20:51:54.560Z,1545.8
2022-12-23T20:53:38.254Z,1551.2
2022-12-23T20:55:21.968Z,1559.2
2022-12-23T20:57:05.762Z,1566.9
2022-12-23T20:58:49.379Z,1574.5
2022-12-23T21:00:33.206Z,1580.8
2022-12-23T21:02:16.773Z,1589.4
2022-12-23T21:04:00.580Z,1594.8
2022-12-23T21:05:44.228Z,1602.8
2022-12-23T21:07:27.907Z,1610.5
2022-12-23T21:09:11.595Z,1621.2
2022-12-23T21:10:55.307Z,1626
2022-12-23T21:12:38.993Z,1633.8
2022-12-23T21:14:22.745Z,1641
2022-12-23T21:16:06.404Z,1642.7
2022-12-23T21:17:50.155Z,1650.9
2022-12-23T21:19:33.894Z,1657.1
2022-12-23T21:21:17.514Z,1663.1
2022-12-23T21:23:01.210Z,1667.3
2022-12-23T21:24:44.977Z,1668.7
2022-12-23T21:26:28.638Z,1668.6
2022-12-23T21:28:12.383Z,1672
2022-12-23T21:29:56.084Z,1671.8
2022-12-23T21:31:39.763Z,1673.5
2022-12-23T21:33:23.443Z,1673.8
2022-12-23T21:35:07.150Z,1667.9
2022-12-23T21:36:50.848Z,1665
2022-12-23T21:38:34.548Z,1673.5
2022-12-23T21:40:18.279Z,1674.6
2022-12-23T21:42:02.078Z,1678.6
2022-12-23T21:43:45.668Z,1686.1
2022-12-23T21:45:29.359Z,1689.9
2022-12-23T21:47:13.103Z,1695.3
2022-12-23T21:48:56.778Z,1700.3
2022-12-23T21:50:40.473Z,1709.3
2022-12-23T21:52:24.320Z,1717.1
2022-12-23T21:54:07.909Z,1724.4
2022-12-23T21:55:51.574Z,1730.2
2022-12-23T21:57:35.283Z,1734.7
2022-12-23T21:59:18.996Z,1737
2022-12-23T22:01:02.668Z,1729.4
2022-12-23T22:02:46.404Z,1715.8
2022-12-23T22:04:30.071Z,1680.5
2022-12-23T22:06:13.791Z,1663.3
2022-12-23T22:07:57.489Z,1662.4
2022-12-23T22:09:41.380Z,1674.7
2022-12-23T22:11:24.967Z,1686.3
2022-12-23T22:13:08.643Z,1688.5
2022-12-23T22:14:52.327Z,1649
2022-12-23T22:16:36.066Z,1675
2022-12-23T22:18:19.888Z,1685.5
2022-12-23T22:20:03.544Z,1686.1
2022-12-23T22:21:47.268Z,1648.3
2022-12-23T22:23:30.897Z,1588.6
2022-12-23T22:25:14.630Z,1589.5
2022-12-23T22:26:58.368Z,1589
2022-12-23T22:28:42.019Z,1580.3
2022-12-23T22:30:25.727Z,1565.7
2022-12-23T22:32:09.461Z,1560.3
2022-12-23T22:33:53.127Z,1557.1
2022-12-23T22:35:36.733Z,1555.5
2022-12-23T22:37:20.563Z,1552.2
2022-12-23T22:39:04.127Z,1552.6
2022-12-23T22:40:47.899Z,1549.3
2022-12-23T22:42:31.720Z,1546.3
2022-12-23T22:44:15.334Z,1546.1
2022-12-23T22:45:59.016Z,1546.4
2022-12-23T22:47:42.711Z,1546.2
2022-12-23T22:49:26.491Z,1548.5
2022-12-23T22:51:10.081Z,1549.7
2022-12-23T22:52:53.807Z,1551.2
2022-12-23T22:54:37.626Z,1551.2
2022-12-23T22:56:21.200Z,1550.9
2022-12-23T22:58:04.859Z,1553.5
2022-12-23T22:59:48.601Z,1557.5
2022-12-23T23:01:32.383Z,1562
2022-12-23T23:03:16.070Z,1563.5
2022-12-23T23:04:59.830Z,1565.1
2022-12-23T23:06:43.393Z,1566.6
2022-12-23T23:08:27.108Z,1572
2022-12-23T23:10:10.788Z,1574.5
2022-12-23T23:11:54.496Z,1579
2022-12-23T23:13:38.172Z,1583.2
2022-12-23T23:15:21.889Z,1588.1
2022-12-23T23:17:05.593Z,1588.9
2022-12-23T23:18:49.335Z,1594.4
2022-12-23T23:20:32.992Z,1595.9
2022-12-23T23:22:16.691Z,1598.3
2022-12-23T23:24:00.449Z,1596.1
2022-12-23T23:25:44.125Z,1588.6
2022-12-23T23:27:27.837Z,1578.8
2022-12-23T23:29:11.534Z,1569.2
2022-12-23T23:30:55.228Z,1559.7
2022-12-23T23:32:38.926Z,1545.1
2022-12-23T23:34:22.694Z,1538
2022-12-23T23:36:06.335Z,1530.7
2022-12-23T23:37:50.036Z,1525.7
2022-12-23T23:39:33.763Z,1525.4
2022-12-23T23:41:17.459Z,1522.5
2022-12-23T23:43:01.157Z,1522
2022-12-23T23:44:44.839Z,1520.4
2022-12-23T23:46:28.607Z,1516.1
2022-12-23T23:48:12.241Z,1517.7
2022-12-23T23:49:55.972Z,1513.1
2022-12-23T23:51:39.679Z,1505.8
2022-12-23T23:53:23.399Z,1500
2022-12-23T23:55:07.065Z,1491.5
2022-12-23T23:56:50.776Z,1488
2022-12-23T23:58:34.451Z,1485.8
